Time;durP1;ratioP1;P1;durP2;ratioP2;P2;SDS_P1;SDS_P2;PMS_P1;PMS_P2;Temp;Humidity;BMP_temperature;BMP_pressure;BME280_temperature;BME280_humidity;BME280_pressure;Samples;Min_cycle;Max_cycle;Signal;HPM_P1;HPM_P2
2021/04/14 00:01:53;;;;;;;3.43;2.10;;;3.60;99.90;;;;;;5050786;28;20450;-68
2021/04/14 00:04:19;;;;;;;3.97;2.20;;;3.80;99.90;;;;;;5050527;28;20804;-69
2021/04/14 00:06:44;;;;;;;5.73;2.20;;;3.60;99.70;;;;;;5050571;28;20414;-68
2021/04/14 00:09:10;;;;;;;4.75;2.30;;;3.60;99.90;;;;;;5049523;28;20194;-68
2021/04/14 00:11:37;;;;;;;6.63;2.23;;;3.50;99.90;;;;;;5050389;28;20175;-69
2021/04/14 00:14:06;;;;;;;3.23;1.90;;;3.40;99.90;;;;;;5051292;28;20202;-68
2021/04/14 00:16:32;;;;;;;4.77;2.53;;;3.40;99.90;;;;;;5050626;28;20406;-67
2021/04/14 00:18:58;;;;;;;4.03;2.73;;;3.40;99.90;;;;;;5050277;28;20424;-69
2021/04/14 00:21:25;;;;;;;12.57;2.63;;;3.40;99.90;;;;;;5050505;28;20548;-68
2021/04/14 00:23:52;;;;;;;3.63;2.43;;;3.30;99.90;;;;;;5050496;28;20179;-68
2021/04/14 00:26:17;;;;;;;6.97;2.93;;;3.20;99.90;;;;;;5050323;28;20501;-67
2021/04/14 00:28:44;;;;;;;6.87;3.10;;;3.10;99.90;;;;;;5050648;28;20543;-68
2021/04/14 00:31:10;;;;;;;4.50;2.60;;;3.00;99.90;;;;;;5049970;28;20202;-66
2021/04/14 00:33:36;;;;;;;4.57;2.50;;;3.00;99.90;;;;;;5050237;28;20413;-66
2021/04/14 00:36:03;;;;;;;5.83;2.60;;;3.00;99.90;;;;;;5050067;28;20940;-69
2021/04/14 00:38:28;;;;;;;4.83;2.53;;;2.90;99.90;;;;;;5053182;28;20198;-65
2021/04/14 00:41:00;;;;;;;5.50;2.87;;;2.90;99.90;;;;;;5054674;28;20441;-68
2021/04/14 00:43:30;;;;;;;3.90;2.30;;;2.90;99.90;;;;;;5054490;28;20652;-67
2021/04/14 00:45:56;;;;;;;4.87;2.60;;;2.80;99.90;;;;;;5054416;28;20498;-68
2021/04/14 00:48:22;;;;;;;6.17;2.73;;;2.70;99.90;;;;;;5054103;28;20767;-66
2021/04/14 00:50:48;;;;;;;4.97;2.60;;;2.50;99.90;;;;;;5036334;28;20449;-68
2021/04/14 00:53:16;;;;;;;3.37;2.30;;;2.40;99.90;;;;;;5054223;28;20409;-68
2021/04/14 00:55:43;;;;;;;5.30;2.50;;;2.40;99.90;;;;;;5054530;28;20416;-67
2021/04/14 00:58:09;;;;;;;3.60;2.50;;;2.50;99.90;;;;;;5052677;28;20830;-66
2021/04/14 01:00:42;;;;;;;3.83;2.40;;;2.50;99.90;;;;;;5054116;28;20405;-67
2021/04/14 01:03:25;;;;;;;3.60;2.40;;;2.50;99.90;;;;;;5054107;28;20823;-68
2021/04/14 01:05:53;;;;;;;4.70;3.13;;;2.60;99.90;;;;;;5054199;28;20405;-67
2021/04/14 01:08:19;;;;;;;5.80;2.90;;;2.60;99.90;;;;;;5053885;28;20907;-68
2021/04/14 01:10:45;;;;;;;3.77;2.43;;;2.60;99.90;;;;;;5054046;28;20459;-67
2021/04/14 01:13:12;;;;;;;4.23;2.50;;;2.50;99.90;;;;;;5053745;28;20294;-67
2021/04/14 01:15:44;;;;;;;5.00;2.97;;;2.40;99.90;;;;;;5054405;28;20215;-67
2021/04/14 01:18:14;;;;;;;4.67;3.00;;;2.30;99.90;;;;;;5053832;28;20417;-69
2021/04/14 01:20:40;;;;;;;7.57;3.10;;;2.30;99.90;;;;;;5048868;28;20422;-68
2021/04/14 01:23:06;;;;;;;10.23;2.83;;;2.20;99.90;;;;;;5053850;28;20745;-66
2021/04/14 01:25:36;;;;;;;5.97;2.97;;;2.10;99.90;;;;;;5051695;28;20359;-69
2021/04/14 01:28:32;;;;;;;6.43;3.10;;;2.10;99.90;;;;;;5053625;28;20422;-66
2021/04/14 01:30:59;;;;;;;5.13;2.90;;;2.20;99.90;;;;;;5051788;28;20460;-67
2021/04/14 01:33:28;;;;;;;5.97;2.83;;;2.10;99.90;;;;;;5053428;28;20425;-69
2021/04/14 01:35:54;;;;;;;4.93;3.30;;;2.00;99.90;;;;;;5035319;28;20406;-65
2021/04/14 01:38:19;;;;;;;8.07;3.10;;;2.00;99.90;;;;;;5053436;28;20418;-68
2021/04/14 01:40:45;;;;;;;7.07;2.70;;;1.90;99.90;;;;;;5053271;28;20236;-68
2021/04/14 01:43:12;;;;;;;6.53;2.70;;;2.00;99.90;;;;;;5053452;28;20174;-68
2021/04/14 01:45:41;;;;;;;5.03;2.83;;;2.00;99.90;;;;;;5053463;28;20581;-68
2021/04/14 01:48:07;;;;;;;5.53;2.53;;;2.10;99.90;;;;;;5052896;28;20428;-67
2021/04/14 01:50:34;;;;;;;6.20;2.73;;;2.10;99.90;;;;;;5052060;28;20468;-67
2021/04/14 01:53:00;;;;;;;5.30;2.70;;;2.00;99.90;;;;;;5052860;28;20471;-65
2021/04/14 01:55:28;;;;;;;5.17;2.80;;;2.00;99.90;;;;;;5049518;28;20413;-70
2021/04/14 01:57:55;;;;;;;3.87;2.60;;;2.10;99.90;;;;;;5053097;28;20414;-69
2021/04/14 02:00:29;;;;;;;6.47;2.70;;;2.20;99.90;;;;;;5053067;28;20760;-67
2021/04/14 02:02:55;;;;;;;5.37;2.90;;;2.20;99.90;;;;;;5052992;28;20419;-67
2021/04/14 02:05:24;;;;;;;5.13;2.73;;;2.20;99.90;;;;;;5052588;28;20421;-68
2021/04/14 02:07:49;;;;;;;4.13;2.70;;;2.20;99.90;;;;;;5053130;28;20175;-68
2021/04/14 02:10:15;;;;;;;4.50;3.00;;;2.20;99.90;;;;;;5052571;28;20468;-67
2021/04/14 02:12:42;;;;;;;5.87;2.77;;;2.10;99.90;;;;;;5052862;28;20175;-68
2021/04/14 02:15:11;;;;;;;6.00;2.63;;;2.00;99.90;;;;;;5053762;28;20499;-68
2021/04/14 02:17:36;;;;;;;5.03;2.77;;;1.90;99.90;;;;;;5052433;28;20899;-68
2021/04/14 02:20:03;;;;;;;3.50;2.93;;;2.00;99.90;;;;;;5052595;28;20410;-66
2021/04/14 02:22:28;;;;;;;6.70;3.20;;;1.90;99.90;;;;;;5052270;28;20648;-67
2021/04/14 02:24:54;;;;;;;6.17;2.60;;;1.90;99.90;;;;;;5052708;28;20468;-67
2021/04/14 02:27:19;;;;;;;4.13;2.50;;;2.00;99.90;;;;;;5052565;28;20187;-69
2021/04/14 02:29:45;;;;;;;4.03;2.90;;;2.00;99.90;;;;;;5052335;28;20202;-68
2021/04/14 02:32:10;;;;;;;4.37;2.83;;;1.90;99.90;;;;;;5052406;28;20175;-68
2021/04/14 02:34:36;;;;;;;8.30;3.23;;;1.90;99.90;;;;;;5052169;28;20171;-69
2021/04/14 02:37:02;;;;;;;5.40;2.67;;;1.90;99.90;;;;;;5052554;28;20232;-67
2021/04/14 02:39:28;;;;;;;7.13;2.70;;;2.00;99.90;;;;;;5052157;28;20175;-68
2021/04/14 02:41:54;;;;;;;6.07;2.93;;;2.00;99.90;;;;;;5052202;28;20187;-67
2021/04/14 02:44:20;;;;;;;7.00;2.80;;;1.90;99.90;;;;;;5052193;28;20414;-68
2021/04/14 02:46:46;;;;;;;8.27;3.60;;;1.80;99.90;;;;;;5051990;28;20417;-66
2021/04/14 02:49:12;;;;;;;6.97;2.90;;;1.90;99.90;;;;;;5051980;28;20894;-65
2021/04/14 02:51:37;;;;;;;4.00;2.73;;;1.80;99.90;;;;;;5051425;28;20258;-68
2021/04/14 02:54:03;;;;;;;6.67;3.00;;;1.90;99.90;;;;;;5051367;28;20183;-67
2021/04/14 02:56:29;;;;;;;9.90;2.90;;;1.80;99.90;;;;;;5052050;28;20541;-67
2021/04/14 02:58:54;;;;;;;7.87;3.13;;;1.80;99.90;;;;;;5051651;28;20537;-66
2021/04/14 03:01:20;;;;;;;3.90;2.90;;;1.60;99.90;;;;;;5051608;28;20190;-68
2021/04/14 03:03:46;;;;;;;6.17;2.80;;;1.50;99.90;;;;;;5051986;28;20205;-67
2021/04/14 03:06:12;;;;;;;6.87;3.27;;;1.40;99.90;;;;;;5051872;28;20187;-67
2021/04/14 03:08:37;;;;;;;4.97;2.70;;;1.30;99.90;;;;;;5051972;28;20183;-67
2021/04/14 03:11:03;;;;;;;6.27;2.90;;;1.30;99.90;;;;;;5051479;28;20199;-66
2021/04/14 03:13:29;;;;;;;6.73;3.20;;;1.20;99.90;;;;;;5051924;28;21300;-68
2021/04/14 03:15:55;;;;;;;4.03;2.70;;;1.20;99.90;;;;;;5052024;28;20221;-68
2021/04/14 03:18:20;;;;;;;4.83;2.83;;;1.20;99.90;;;;;;5051701;28;20175;-66
2021/04/14 03:20:46;;;;;;;6.67;3.10;;;1.20;99.90;;;;;;5051547;28;20171;-68
2021/04/14 03:23:15;;;;;;;6.10;3.20;;;1.30;99.90;;;;;;5051200;28;20186;-68
2021/04/14 03:25:41;;;;;;;8.50;3.63;;;1.40;99.90;;;;;;5051471;28;20406;-68
2021/04/14 03:28:07;;;;;;;6.10;2.47;;;1.50;99.90;;;;;;5051126;28;20409;-70
2021/04/14 03:30:33;;;;;;;4.33;2.93;;;1.60;99.90;;;;;;5033240;28;20462;-67
2021/04/14 03:32:59;;;;;;;5.83;2.90;;;1.60;99.90;;;;;;5051369;28;20505;-69
2021/04/14 03:35:27;;;;;;;5.40;2.73;;;1.50;99.90;;;;;;5051198;28;20512;-69
2021/04/14 03:37:53;;;;;;;10.33;3.20;;;1.40;99.90;;;;;;5051351;28;20175;-66
2021/04/14 03:40:19;;;;;;;3.37;2.63;;;1.40;99.90;;;;;;5051134;28;20509;-68
2021/04/14 03:42:44;;;;;;;7.50;3.20;;;1.30;99.90;;;;;;5048305;28;20179;-67
2021/04/14 03:45:15;;;;;;;7.93;2.83;;;1.40;99.90;;;;;;5051169;28;20424;-66
2021/04/14 03:47:41;;;;;;;7.87;3.17;;;1.40;99.90;;;;;;5051094;28;20608;-67
2021/04/14 03:50:10;;;;;;;5.03;2.50;;;1.50;99.90;;;;;;5050947;28;20457;-65
2021/04/14 03:52:43;;;;;;;5.63;2.93;;;1.40;99.90;;;;;;5050810;28;20977;-68
2021/04/14 03:55:11;;;;;;;4.77;2.67;;;1.30;99.90;;;;;;5049180;28;20413;-66
2021/04/14 03:57:36;;;;;;;7.80;3.00;;;1.40;99.90;;;;;;5050369;28;20757;-68
2021/04/14 04:00:04;;;;;;;5.70;3.00;;;1.50;99.90;;;;;;5051055;28;20401;-68
2021/04/14 04:02:30;;;;;;;7.80;2.80;;;1.50;99.90;;;;;;5050677;28;20177;-68
2021/04/14 04:04:55;;;;;;;6.23;3.20;;;1.40;99.90;;;;;;5050815;28;20418;-68
2021/04/14 04:07:21;;;;;;;5.67;2.93;;;1.40;99.90;;;;;;5050768;28;20179;-67
2021/04/14 04:09:47;;;;;;;5.40;2.70;;;1.40;99.90;;;;;;5050882;28;20274;-67
2021/04/14 04:12:12;;;;;;;9.03;3.03;;;1.40;99.90;;;;;;5050215;28;20179;-67
2021/04/14 04:14:47;;;;;;;10.47;3.10;;;1.30;99.90;;;;;;5051784;28;20214;-68
2021/04/14 04:17:14;;;;;;;3.90;3.03;;;1.40;99.90;;;;;;5047130;28;20725;-68
2021/04/14 04:19:41;;;;;;;4.57;2.93;;;1.40;99.90;;;;;;5050448;28;20426;-67
2021/04/14 04:22:07;;;;;;;8.70;2.93;;;1.50;99.90;;;;;;5050538;28;20441;-67
2021/04/14 04:24:34;;;;;;;6.77;2.87;;;1.60;99.90;;;;;;5050431;28;20929;-66
2021/04/14 04:26:59;;;;;;;4.17;2.67;;;1.60;99.90;;;;;;5031983;28;20962;-66
2021/04/14 04:29:25;;;;;;;3.57;2.87;;;1.70;99.90;;;;;;5050349;28;20524;-66
2021/04/14 04:31:51;;;;;;;4.17;2.60;;;1.80;99.90;;;;;;5050337;28;20202;-68
2021/04/14 04:34:17;;;;;;;7.87;3.33;;;1.80;99.90;;;;;;5050350;28;20696;-68
2021/04/14 04:36:42;;;;;;;6.37;2.90;;;1.80;99.90;;;;;;5050282;28;20667;-67
2021/04/14 04:39:08;;;;;;;5.37;3.20;;;1.90;99.90;;;;;;5050188;28;20573;-67
2021/04/14 04:41:34;;;;;;;5.63;2.50;;;1.90;99.90;;;;;;5050492;28;20182;-68
2021/04/14 04:43:59;;;;;;;6.87;3.00;;;1.90;99.90;;;;;;5050234;28;20174;-69
2021/04/14 04:46:25;;;;;;;6.47;3.10;;;2.00;99.90;;;;;;5050212;28;20429;-67
2021/04/14 04:48:51;;;;;;;6.73;3.37;;;2.00;99.90;;;;;;5050216;28;20641;-67
2021/04/14 04:51:16;;;;;;;7.80;2.97;;;2.20;99.90;;;;;;5049756;28;20195;-69
2021/04/14 04:53:42;;;;;;;6.47;2.83;;;2.40;99.90;;;;;;5050105;28;20179;-69
2021/04/14 04:56:08;;;;;;;5.27;3.07;;;2.40;99.90;;;;;;5049977;28;20209;-68
2021/04/14 04:58:33;;;;;;;6.73;3.30;;;2.50;99.90;;;;;;5050009;28;20195;-67
2021/04/14 05:00:59;;;;;;;3.77;2.90;;;2.50;99.90;;;;;;5045935;28;20182;-69
2021/04/14 05:03:28;;;;;;;6.33;3.10;;;2.60;99.90;;;;;;5049649;28;20671;-66
2021/04/14 05:05:56;;;;;;;8.53;3.40;;;2.60;99.90;;;;;;5048301;28;20563;-69
2021/04/14 05:08:22;;;;;;;4.43;3.10;;;2.60;99.90;;;;;;5049894;28;20529;-68
2021/04/14 05:10:48;;;;;;;5.77;3.27;;;2.60;99.90;;;;;;5049752;28;21029;-68
2021/04/14 05:13:14;;;;;;;5.40;2.83;;;2.70;99.90;;;;;;5047898;28;20171;-68
2021/04/14 05:15:41;;;;;;;4.27;3.07;;;2.70;99.90;;;;;;5046573;28;20445;-67
2021/04/14 05:18:08;;;;;;;5.80;3.40;;;2.90;99.90;;;;;;5031904;28;20278;-68
2021/04/14 05:20:34;;;;;;;7.60;3.20;;;2.90;99.90;;;;;;5049649;28;20410;-68
2021/04/14 05:23:00;;;;;;;11.73;2.87;;;3.00;99.90;;;;;;5049568;28;20413;-68
2021/04/14 05:25:30;;;;;;;6.70;3.40;;;3.10;99.90;;;;;;5053746;28;20419;-68
2021/04/14 05:28:00;;;;;;;7.50;3.27;;;3.10;99.90;;;;;;5053288;28;20904;-67
2021/04/14 05:30:26;;;;;;;4.60;3.20;;;3.30;99.90;;;;;;5053378;28;20460;-67
2021/04/14 05:32:52;;;;;;;5.80;2.83;;;3.30;99.90;;;;;;5053288;28;20405;-68
2021/04/14 05:35:18;;;;;;;6.07;3.33;;;3.40;99.90;;;;;;5053180;28;20626;-69
2021/04/14 05:37:44;;;;;;;3.97;3.07;;;3.50;99.90;;;;;;5053125;28;20417;-69
2021/04/14 05:40:10;;;;;;;4.10;2.90;;;3.60;99.90;;;;;;5053122;28;20254;-66
2021/04/14 05:42:39;;;;;;;5.23;3.37;;;3.70;99.90;;;;;;5053163;28;20527;-67
2021/04/14 05:45:06;;;;;;;12.40;3.63;;;3.70;99.90;;;;;;5053091;28;20434;-67
2021/04/14 05:47:32;;;;;;;7.60;3.40;;;3.80;99.90;;;;;;5053438;28;20453;-67
2021/04/14 05:49:57;;;;;;;5.63;3.57;;;3.90;99.90;;;;;;5052795;28;20480;-67
2021/04/14 05:52:23;;;;;;;5.33;3.90;;;4.00;99.90;;;;;;5052775;28;20681;-68
2021/04/14 05:54:48;;;;;;;11.20;4.00;;;4.20;99.90;;;;;;5053103;28;20649;-69
2021/04/14 05:57:14;;;;;;;7.37;3.77;;;4.30;99.90;;;;;;5051473;28;20232;-69
2021/04/14 05:59:40;;;;;;;3.83;3.07;;;4.40;99.90;;;;;;5052923;28;20625;-68
2021/04/14 06:02:06;;;;;;;15.17;4.87;;;4.50;99.90;;;;;;5053091;28;20637;-68
2021/04/14 06:04:31;;;;;;;5.83;4.20;;;4.60;99.90;;;;;;5053048;28;20178;-67
2021/04/14 06:06:57;;;;;;;8.20;3.47;;;4.70;99.90;;;;;;5053067;28;20417;-68
2021/04/14 06:09:23;;;;;;;4.60;3.10;;;4.70;99.90;;;;;;5052855;28;20649;-68
2021/04/14 06:11:48;;;;;;;5.23;3.03;;;4.90;99.90;;;;;;5052960;28;20570;-69
2021/04/14 06:14:14;;;;;;;9.13;3.13;;;5.10;99.90;;;;;;5054001;28;20204;-68
2021/04/14 06:16:39;;;;;;;4.27;3.57;;;5.10;99.90;;;;;;5052793;28;20182;-68
2021/04/14 06:19:05;;;;;;;5.77;2.97;;;5.20;99.90;;;;;;5053009;28;20317;-69
2021/04/14 06:21:31;;;;;;;6.67;3.43;;;5.20;99.90;;;;;;5052686;28;20187;-67
2021/04/14 06:23:58;;;;;;;6.03;3.10;;;5.30;99.70;;;;;;5052581;28;20723;-68
2021/04/14 06:29:08;;;;;;;7.37;2.70;;;5.40;99.90;;;;;;5052429;28;20421;-69
2021/04/14 06:31:40;;;;;;;6.00;2.77;;;5.50;98.40;;;;;;5052185;28;20814;-68
2021/04/14 06:34:21;;;;;;;5.13;2.90;;;5.60;99.20;;;;;;5052113;28;20221;-68
2021/04/14 06:36:53;;;;;;;6.10;3.37;;;5.70;98.30;;;;;;5051040;28;20409;-68
2021/04/14 06:39:21;;;;;;;4.40;2.80;;;5.70;97.90;;;;;;5052228;28;20753;-68
2021/04/14 06:42:16;;;;;;;8.63;3.17;;;5.70;97.50;;;;;;5034360;28;20967;-69
2021/04/14 06:45:02;;;;;;;5.50;2.80;;;5.80;97.80;;;;;;5051988;28;20414;-66
2021/04/14 06:47:51;;;;;;;4.27;2.70;;;5.90;96.20;;;;;;5051910;28;20457;-67
2021/04/14 06:50:52;;;;;;;3.00;2.60;;;5.90;96.40;;;;;;5052343;28;20786;-68
2021/04/14 06:53:35;;;;;;;6.87;3.20;;;5.90;97.10;;;;;;4997260;28;20424;-67
2021/04/14 06:56:10;;;;;;;5.43;2.90;;;5.80;95.90;;;;;;5051857;28;20481;-67
2021/04/14 06:58:40;;;;;;;8.33;2.97;;;5.90;98.20;;;;;;5052083;28;20911;-66
2021/04/14 07:01:11;;;;;;;5.77;3.43;;;6.00;97.40;;;;;;5051343;28;20502;-66
2021/04/14 07:03:52;;;;;;;9.90;3.43;;;6.10;97.10;;;;;;5051796;28;20416;-69
2021/04/14 07:06:25;;;;;;;3.93;3.17;;;6.10;95.70;;;;;;5049913;28;20409;-67
2021/04/14 07:09:03;;;;;;;9.03;3.10;;;6.10;97.00;;;;;;5052192;28;20413;-68
2021/04/14 07:11:30;;;;;;;8.63;3.37;;;6.00;95.00;;;;;;5051468;28;20481;-67
2021/04/14 07:13:57;;;;;;;3.47;2.90;;;6.00;94.90;;;;;;5034006;28;20412;-68
2021/04/14 07:16:43;;;;;;;6.07;3.00;;;6.00;97.40;;;;;;5051985;28;20450;-69
2021/04/14 07:19:35;;;;;;;4.97;2.90;;;6.10;98.00;;;;;;5051458;28;20405;-68
2021/04/14 07:22:13;;;;;;;5.20;2.80;;;6.00;95.70;;;;;;5051365;28;20429;-68
2021/04/14 07:24:48;;;;;;;3.67;2.83;;;6.00;96.90;;;;;;5051517;28;20421;-67
2021/04/14 07:27:32;;;;;;;8.37;3.20;;;6.00;96.50;;;;;;5051450;28;20421;-69
2021/04/14 07:30:13;;;;;;;5.37;3.20;;;6.10;97.00;;;;;;5051451;28;20803;-68
2021/04/14 07:32:57;;;;;;;10.70;4.00;;;6.00;96.10;;;;;;5051103;28;20424;-70
2021/04/14 07:35:32;;;;;;;7.00;3.80;;;6.00;97.40;;;;;;5051235;28;20764;-67
2021/04/14 07:38:21;;;;;;;8.20;4.00;;;6.00;96.80;;;;;;5051224;28;20416;-69
2021/04/14 07:41:09;;;;;;;5.00;3.50;;;6.00;96.90;;;;;;5051364;28;20425;-68
2021/04/14 07:43:53;;;;;;;6.03;3.57;;;6.10;96.30;;;;;;5051198;28;20425;-67
2021/04/14 07:46:23;;;;;;;5.90;3.67;;;6.10;96.40;;;;;;5046994;28;20444;-68
2021/04/14 07:48:53;;;;;;;6.70;3.73;;;6.20;95.90;;;;;;5050212;28;20422;-69
2021/04/14 07:51:19;;;;;;;5.70;3.83;;;6.30;96.60;;;;;;5050912;28;20509;-68
2021/04/14 07:53:59;;;;;;;7.47;4.60;;;6.40;96.10;;;;;;5016664;28;20410;-68
2021/04/14 07:56:26;;;;;;;7.80;4.00;;;6.60;96.80;;;;;;5051111;28;20418;-68
2021/04/14 07:59:05;;;;;;;8.87;4.20;;;6.80;94.40;;;;;;5050748;28;20473;-68
2021/04/14 08:01:34;;;;;;;6.63;3.10;;;7.00;93.50;;;;;;5050902;28;20427;-68
2021/04/14 08:04:23;;;;;;;5.83;3.27;;;7.20;92.50;;;;;;5050472;28;20413;-68
2021/04/14 08:06:49;;;;;;;6.17;3.50;;;7.40;91.30;;;;;;5050400;28;20475;-68
2021/04/14 08:09:19;;;;;;;5.23;3.10;;;7.60;92.00;;;;;;5050948;28;20421;-70
2021/04/14 08:11:45;;;;;;;4.60;3.43;;;7.70;90.50;;;;;;5050262;28;20222;-67
2021/04/14 08:14:14;;;;;;;4.50;3.20;;;7.80;90.60;;;;;;5049880;28;20457;-69
2021/04/14 08:16:47;;;;;;;4.93;3.13;;;8.00;90.10;;;;;;5030997;28;20414;-68
2021/04/14 08:19:19;;;;;;;5.03;3.37;;;8.10;90.20;;;;;;5030955;28;20407;-69
2021/04/14 08:22:00;;;;;;;4.73;3.23;;;8.10;88.00;;;;;;5030975;28;20414;-69
2021/04/14 08:24:48;;;;;;;12.93;6.53;;;8.20;86.60;;;;;;5013045;28;20422;-70
2021/04/14 08:27:36;;;;;;;4.97;3.03;;;8.30;89.00;;;;;;5030708;28;20761;-68
2021/04/14 08:30:02;;;;;;;7.40;4.03;;;8.20;84.50;;;;;;5030880;28;20466;-69
2021/04/14 08:32:54;;;;;;;6.10;3.20;;;8.20;87.10;;;;;;5030736;28;20422;-68
2021/04/14 08:35:38;;;;;;;7.53;3.37;;;8.10;86.80;;;;;;5017141;28;20924;-67
2021/04/14 08:38:08;;;;;;;6.07;3.00;;;8.10;86.20;;;;;;5030564;28;20529;-68
2021/04/14 08:40:41;;;;;;;5.20;3.17;;;8.10;88.80;;;;;;5030503;28;20422;-68
2021/04/14 08:43:10;;;;;;;4.17;2.77;;;8.10;86.10;;;;;;5030332;28;20724;-66
2021/04/14 08:45:42;;;;;;;5.03;2.83;;;8.30;87.50;;;;;;5030501;28;20508;-70
2021/04/14 08:48:17;;;;;;;9.57;3.40;;;8.50;85.90;;;;;;5030412;28;20415;-69
2021/04/14 08:50:48;;;;;;;4.37;3.43;;;8.60;84.00;;;;;;5030586;28;20951;-70
2021/04/14 08:53:18;;;;;;;7.33;3.03;;;8.60;82.50;;;;;;5030141;28;20881;-68
2021/04/14 08:55:44;;;;;;;4.17;2.70;;;8.60;79.80;;;;;;5030214;28;20473;-69
2021/04/14 08:58:17;;;;;;;4.97;2.83;;;8.60;81.10;;;;;;5030686;28;20419;-71
2021/04/14 09:00:43;;;;;;;5.97;2.97;;;8.80;81.60;;;;;;5034368;28;20266;-69
2021/04/14 09:03:12;;;;;;;5.80;2.97;;;8.90;81.40;;;;;;5034530;28;20422;-68
2021/04/14 09:05:44;;;;;;;6.43;3.10;;;9.10;78.50;;;;;;5034152;28;20423;-71
2021/04/14 09:08:17;;;;;;;4.47;2.80;;;9.00;76.40;;;;;;5016356;28;20461;-69
2021/04/14 09:10:53;;;;;;;4.87;2.90;;;9.20;76.60;;;;;;5034188;28;20538;-68
2021/04/14 09:13:47;;;;;;;6.47;2.60;;;9.40;76.70;;;;;;5034080;28;20441;-69
2021/04/14 09:16:34;;;;;;;3.20;2.67;;;9.60;74.00;;;;;;5049933;28;20449;-70
2021/04/14 09:19:26;;;;;;;4.40;2.73;;;9.90;70.90;;;;;;5035549;28;20449;-69
2021/04/14 09:22:01;;;;;;;3.33;2.30;;;10.10;66.80;;;;;;5048717;28;20195;-67
2021/04/14 09:24:35;;;;;;;5.93;2.97;;;10.10;66.80;;;;;;5053817;28;20429;-70
2021/04/14 09:27:05;;;;;;;6.33;3.13;;;10.10;67.00;;;;;;5053595;28;20915;-69
2021/04/14 09:30:05;;;;;;;6.63;3.17;;;9.90;65.90;;;;;;5053787;28;20949;-69
2021/04/14 09:32:43;;;;;;;6.70;2.73;;;9.70;66.10;;;;;;5036495;28;20449;-69
2021/04/14 09:35:32;;;;;;;11.27;3.30;;;9.80;69.20;;;;;;5035751;28;20771;-66
2021/04/14 09:40:48;;;;;;;9.67;2.60;;;9.70;65.50;;;;;;5053351;28;20413;-68
2021/04/14 09:43:17;;;;;;;6.10;2.10;;;9.70;68.00;;;;;;5053556;28;20418;-67
2021/04/14 09:46:12;;;;;;;3.53;1.90;;;9.80;65.10;;;;;;5053169;28;20471;-69
2021/04/14 09:48:38;;;;;;;3.90;2.17;;;9.90;66.80;;;;;;5002435;28;20482;-68
2021/04/14 09:51:14;;;;;;;3.47;1.80;;;10.20;68.10;;;;;;5052949;28;20712;-70
2021/04/14 09:53:40;;;;;;;4.67;2.03;;;10.60;64.40;;;;;;5051388;28;20257;-67
2021/04/14 09:56:21;;;;;;;4.33;2.57;;;10.80;61.00;;;;;;5053381;28;20582;-68
2021/04/14 09:58:56;;;;;;;3.53;2.03;;;11.10;62.00;;;;;;5051766;28;20166;-68
2021/04/14 10:01:34;;;;;;;3.67;2.20;;;11.20;58.10;;;;;;5053172;28;20167;-70
2021/04/14 10:04:24;;;;;;;5.90;2.70;;;11.00;59.50;;;;;;5053159;28;20174;-68
2021/04/14 10:06:55;;;;;;;4.83;2.20;;;10.90;58.90;;;;;;5034006;28;20277;-70
2021/04/14 10:09:32;;;;;;;2.27;1.80;;;10.80;57.70;;;;;;5052825;28;20179;-68
2021/04/14 10:12:20;;;;;;;4.63;1.80;;;10.60;57.90;;;;;;5051399;28;20639;-69
2021/04/14 10:14:51;;;;;;;3.50;1.57;;;10.30;56.90;;;;;;5054042;28;20449;-69
2021/04/14 10:17:19;;;;;;;3.50;1.93;;;10.30;57.70;;;;;;5052518;28;20186;-70
2021/04/14 10:19:52;;;;;;;4.50;1.97;;;10.40;59.00;;;;;;5052779;28;20417;-69
2021/04/14 10:22:23;;;;;;;7.27;2.10;;;10.40;57.30;;;;;;5048575;28;20542;-68
2021/04/14 10:25:00;;;;;;;2.97;1.80;;;10.40;56.70;;;;;;5035101;28;20171;-68
2021/04/14 10:27:25;;;;;;;2.77;1.50;;;10.20;54.70;;;;;;5052748;28;20265;-70
2021/04/14 10:29:51;;;;;;;4.47;2.07;;;9.90;56.00;;;;;;5052651;28;20361;-69
2021/04/14 10:32:20;;;;;;;3.13;1.80;;;9.80;57.30;;;;;;5052966;28;20182;-69
2021/04/14 10:34:47;;;;;;;4.80;1.90;;;9.70;56.30;;;;;;5052872;28;20207;-71
2021/04/14 10:37:25;;;;;;;4.50;1.73;;;9.80;57.30;;;;;;5052499;28;20410;-70
2021/04/14 10:39:52;;;;;;;3.80;2.10;;;9.80;56.80;;;;;;5051972;28;20417;-70
2021/04/14 10:42:18;;;;;;;5.57;2.30;;;9.50;58.50;;;;;;5051248;28;20414;-68
2021/04/14 10:44:44;;;;;;;6.27;2.53;;;9.40;60.90;;;;;;5052450;28;20412;-71
2021/04/14 10:47:33;;;;;;;4.37;2.17;;;9.30;61.70;;;;;;5052029;28;20235;-69
2021/04/14 10:50:13;;;;;;;6.93;2.63;;;9.20;60.20;;;;;;5052134;28;20547;-69
2021/04/14 10:52:40;;;;;;;7.60;2.67;;;9.00;61.30;;;;;;5050914;28;20409;-69
2021/04/14 10:55:12;;;;;;;3.43;2.00;;;8.60;61.10;;;;;;5049178;28;20417;-66
2021/04/14 10:57:45;;;;;;;5.00;2.33;;;8.70;62.00;;;;;;5052218;28;20442;-67
2021/04/14 11:00:18;;;;;;;4.03;2.57;;;8.80;66.60;;;;;;5017119;28;20492;-70
2021/04/14 11:02:47;;;;;;;4.33;2.47;;;8.90;65.90;;;;;;5051760;28;20409;-67
2021/04/14 11:05:16;;;;;;;5.67;1.70;;;9.10;64.60;;;;;;5047382;28;20414;-69
2021/04/14 11:07:44;;;;;;;6.87;2.00;;;9.30;62.20;;;;;;5052114;28;20421;-68
2021/04/14 11:10:16;;;;;;;4.50;1.93;;;9.40;59.70;;;;;;5051484;28;20441;-67
2021/04/14 11:12:48;;;;;;;3.30;2.37;;;9.60;59.40;;;;;;5047581;28;20915;-68
2021/04/14 11:15:17;;;;;;;5.33;2.43;;;9.70;58.00;;;;;;5052545;28;20880;-68
2021/04/14 11:17:45;;;;;;;2.97;1.87;;;9.90;59.30;;;;;;5051897;28;20418;-67
2021/04/14 11:20:16;;;;;;;3.57;2.40;;;9.90;58.80;;;;;;5048768;28;20440;-70
2021/04/14 11:22:50;;;;;;;4.07;2.40;;;9.90;57.90;;;;;;5051324;28;20689;-68
2021/04/14 11:25:36;;;;;;;7.47;2.73;;;9.80;57.80;;;;;;5048212;28;20954;-67
2021/04/14 11:28:09;;;;;;;3.77;2.50;;;9.80;59.50;;;;;;5048198;28;20750;-68
2021/04/14 11:31:11;;;;;;;3.90;2.87;;;9.80;59.70;;;;;;5051462;28;20226;-68
2021/04/14 11:33:42;;;;;;;3.27;2.37;;;9.90;59.20;;;;;;4951591;29;20189;-66
2021/04/14 11:36:33;;;;;;;2.33;2.03;;;9.80;57.70;;;;;;5017736;28;20645;-68
2021/04/14 11:39:04;;;;;;;4.83;2.30;;;9.80;58.10;;;;;;5046058;28;20174;-69
2021/04/14 11:41:32;;;;;;;3.63;2.10;;;9.70;57.30;;;;;;5049762;28;20421;-70
2021/04/14 11:43:58;;;;;;;3.27;2.47;;;9.70;57.60;;;;;;5050948;28;20421;-67
2021/04/14 11:46:33;;;;;;;2.50;2.20;;;9.80;58.30;;;;;;5051347;28;20417;-69
2021/04/14 11:49:11;;;;;;;2.80;1.90;;;9.80;55.90;;;;;;5049540;28;20420;-72
2021/04/14 11:51:42;;;;;;;5.27;2.10;;;9.90;57.00;;;;;;5049618;28;20802;-68
2021/04/14 11:54:34;;;;;;;2.37;1.93;;;10.00;57.40;;;;;;5050854;28;20180;-69
2021/04/14 11:57:16;;;;;;;7.37;2.87;;;10.10;56.80;;;;;;5050360;28;20397;-69
2021/04/14 12:00:01;;;;;;;6.40;2.70;;;10.40;58.20;;;;;;5051017;28;20171;-68
2021/04/14 12:02:28;;;;;;;5.47;2.37;;;10.60;57.30;;;;;;5050667;28;20209;-68
2021/04/14 12:05:03;;;;;;;3.20;1.90;;;10.70;56.70;;;;;;5050129;28;20202;-69
2021/04/14 12:07:29;;;;;;;5.40;2.00;;;10.50;57.90;;;;;;5048847;28;20182;-68
2021/04/14 12:09:55;;;;;;;2.90;1.70;;;10.30;60.00;;;;;;5031654;28;20256;-69
2021/04/14 12:12:21;;;;;;;4.27;1.93;;;10.10;59.00;;;;;;5049334;28;20181;-70
2021/04/14 12:14:47;;;;;;;4.17;2.10;;;9.90;59.20;;;;;;5051077;28;20567;-70
2021/04/14 12:17:14;;;;;;;3.47;1.83;;;9.80;61.20;;;;;;5050256;28;20414;-68
2021/04/14 12:19:41;;;;;;;3.23;1.90;;;9.70;61.10;;;;;;5049291;28;20426;-69
2021/04/14 12:22:07;;;;;;;3.47;1.90;;;9.70;61.00;;;;;;5050756;28;20500;-69
2021/04/14 12:24:34;;;;;;;8.50;2.00;;;9.60;59.80;;;;;;5050702;28;20413;-68
2021/04/14 12:27:00;;;;;;;3.60;1.60;;;9.70;61.10;;;;;;5049098;28;20425;-67
2021/04/14 12:29:25;;;;;;;2.43;1.60;;;9.70;59.20;;;;;;5049559;28;20411;-68
2021/04/14 12:31:51;;;;;;;2.50;1.43;;;9.70;58.70;;;;;;5051211;28;20213;-70
2021/04/14 12:34:17;;;;;;;4.67;1.53;;;9.70;55.60;;;;;;5047336;28;20179;-70
2021/04/14 12:36:42;;;;;;;4.07;2.10;;;9.60;56.20;;;;;;5048194;28;20618;-71
2021/04/14 12:39:09;;;;;;;3.03;1.47;;;9.70;56.70;;;;;;5048637;28;20232;-67
2021/04/14 12:41:38;;;;;;;3.53;1.63;;;9.80;56.40;;;;;;5049565;28;20690;-71
2021/04/14 12:44:05;;;;;;;2.93;1.73;;;9.80;55.40;;;;;;5050516;28;20891;-68
2021/04/14 12:46:31;;;;;;;2.57;1.50;;;10.00;55.40;;;;;;5051191;28;20449;-67
2021/04/14 12:48:57;;;;;;;3.83;1.90;;;10.00;52.90;;;;;;5048075;28;20899;-66
2021/04/14 12:51:32;;;;;;;3.63;1.77;;;10.00;53.70;;;;;;5049433;28;20467;-67
2021/04/14 12:54:07;;;;;;;1.77;1.50;;;10.00;51.40;;;;;;5048398;28;20182;-69
2021/04/14 12:56:39;;;;;;;2.73;1.77;;;10.10;52.40;;;;;;5047694;28;20412;-70
2021/04/14 12:59:13;;;;;;;4.23;2.23;;;10.20;51.20;;;;;;5049459;28;20495;-68
2021/04/14 13:01:40;;;;;;;3.87;2.40;;;10.50;52.30;;;;;;5050934;28;20207;-68
2021/04/14 13:04:11;;;;;;;4.80;1.60;;;10.80;51.00;;;;;;5051021;28;20190;-69
2021/04/14 13:06:43;;;;;;;3.53;1.67;;;11.10;49.90;;;;;;5045492;28;20644;-69
2021/04/14 13:09:10;;;;;;;2.47;1.50;;;11.50;47.70;;;;;;5050888;28;20171;-68
2021/04/14 13:11:45;;;;;;;5.00;1.77;;;12.00;46.20;;;;;;5045463;28;20210;-69
2021/04/14 13:14:11;;;;;;;3.87;2.20;;;12.40;45.20;;;;;;5046313;28;20613;-67
2021/04/14 13:16:41;;;;;;;4.67;1.80;;;12.70;43.10;;;;;;5051657;28;20644;-69
2021/04/14 13:19:07;;;;;;;3.60;1.90;;;12.90;41.40;;;;;;5047903;28;20673;-68